EST,Max TemperatureF,Mean TemperatureF,Min TemperatureF,Max Dew PointF,MeanDew PointF,Min DewpointF,Max Humidity, Mean Humidity, Min Humidity, Max Sea Level PressureIn, Mean Sea Level PressureIn, Min Sea Level PressureIn, Max VisibilityMiles, Mean VisibilityMiles, Min VisibilityMiles, Max Wind SpeedMPH, Mean Wind SpeedMPH, Max Gust SpeedMPH,PrecipitationIn, CloudCover, Events, WindDirDegrees
2011-11-1,65,52,38,45,41,37,100,70,39,30.35,30.24,30.19,10,6,2,18,5,28,0.00,3,,1
2011-11-2,66,50,34,44,38,33,100,69,37,30.42,30.35,30.30,10,7,2,2,2,2,0.00,0,,37
2011-11-3,71,52,32,51,43,32,100,69,37,30.27,30.10,29.86,10,8,3,12,2,30,0.00,0,,153
2011-11-4,62,57,51,61,55,42,100,83,66,30.01,29.78,29.70,10,6,2,23,11,33,0.66,8,Rain,8
2011-11-5,57,50,43,39,36,30,71,61,50,30.36,30.24,30.05,10,10,10,23,14,32,0.00,2,,27
2011-11-6,69,57,45,50,44,39,96,73,49,30.45,30.38,30.35,10,10,10,15,6,20,0.00,2,,30
2011-11-7,74,58,42,54,49,42,100,73,46,30.38,30.32,30.26,10,10,10,9,2,,0.00,0,,31
2011-11-8,73,58,43,52,47,43,100,73,46,30.28,30.22,30.17,10,6,1,10,2,,0.00,0,,44
2011-11-9,75,59,42,56,47,41,100,75,49,30.16,30.10,29.95,10,6,1,6,2,18,0.00,0,,294
2011-11-10,69,57,44,58,49,35,100,82,63,29.96,29.87,29.77,10,6,0,20,4,25,0.03,4,Fog-Rain,317
2011-11-11,54,43,32,37,28,21,92,60,28,30.23,30.11,29.95,10,10,10,18,7,23,0.00,0,,301
2011-11-12,65,47,29,37,29,22,92,56,19,30.34,30.28,30.23,10,10,10,15,3,30,0.00,0,,196
2011-11-13,69,54,38,53,46,36,100,74,48,30.31,30.24,30.15,10,10,9,20,4,24,0.00,0,,215
2011-11-14,78,63,47,55,50,46,100,70,39,30.19,30.14,30.03,10,6,1,16,6,21,0.00,0,,208
2011-11-15,77,67,57,66,62,56,100,80,60,30.06,30.01,29.97,10,7,0,18,6,24,0.00,2,Fog,206
2011-11-16,84,75,65,67,65,63,100,74,48,29.97,29.88,29.79,10,7,2,25,10,36,0.27,6,Rain,210
2011-11-17,69,55,40,65,52,26,97,75,53,30.33,29.96,29.79,10,9,2,23,9,28,0.09,6,Rain,340
2011-11-18,52,41,30,33,27,20,92,60,28,30.51,30.45,30.35,10,10,10,14,3,18,0.00,0,,20
2011-11-19,67,49,31,52,40,28,100,76,52,30.48,30.40,30.34,10,10,8,12,2,16,0.00,2,,90
2011-11-20,75,62,49,60,57,48,100,79,57,30.38,30.30,30.25,10,9,4,14,3,17,0.00,4,,208
2011-11-21,78,68,58,62,60,57,100,77,54,30.27,30.21,30.14,10,9,5,13,4,22,0.00,2,,242
2011-11-22,79,68,57,63,60,57,100,77,54,30.20,30.11,29.97,10,7,2,14,4,21,0.00,1,,197
2011-11-23,72,61,49,66,58,36,93,68,42,30.13,29.88,29.79,10,9,2,31,14,39,0.35,5,Rain,250
2011-11-24,64,51,37,41,35,31,92,62,32,30.38,30.29,30.14,10,10,8,16,4,26,0.00,0,,341
2011-11-25,67,49,31,42,36,30,100,65,29,30.40,30.34,30.28,10,9,6,10,2,12,0.00,0,,256
2011-11-26,72,53,34,52,43,33,100,72,44,30.38,30.31,30.26,10,8,5,15,2,22,0.00,0,,232
2011-11-27,76,64,51,55,53,50,96,70,43,30.25,30.16,30.07,10,10,10,17,6,22,0.00,5,,146
2011-11-28,69,62,55,65,61,52,100,84,67,30.06,29.93,29.78,10,7,1,30,10,36,0.55,8,Rain,134
2011-11-29,55,48,40,52,44,34,100,82,63,29.93,29.88,29.80,10,7,2,18,10,32,1.19,7,Rain,230
2011-11-30,56,46,36,39,36,34,100,74,47,30.12,29.98,29.91,10,10,6,17,5,22,0.00,1,,266